Time;durP1;ratioP1;P1;durP2;ratioP2;P2;SDS_P1;SDS_P2;PMS_P1;PMS_P2;Temp;Humidity;BMP_temperature;BMP_pressure;BME280_temperature;BME280_humidity;BME280_pressure;Samples;Min_cycle;Max_cycle;Signal;HPM_P1;HPM_P2
2020/12/17 00:00:22;;;;;;;5.25;3.20;;;9.70;93.20;;;;;;5018900;28;20029;-84
2020/12/17 00:02:48;;;;;;;6.20;3.53;;;9.80;93.20;;;;;;5043516;28;20031;-85
2020/12/17 00:05:14;;;;;;;8.35;5.25;;;9.70;93.10;;;;;;5015811;28;20494;-84
2020/12/17 00:07:40;;;;;;;5.22;2.78;;;9.80;93.10;;;;;;5044941;28;20024;-83
2020/12/17 00:10:06;;;;;;;7.70;4.85;;;9.80;93.10;;;;;;5030535;28;20039;-81
2020/12/17 00:12:38;;;;;;;9.68;5.63;;;9.80;93.10;;;;;;5016627;28;20450;-84
2020/12/17 00:15:08;;;;;;;6.78;4.80;;;9.80;93.10;;;;;;5049857;28;20422;-84
2020/12/17 00:17:44;;;;;;;8.10;4.78;;;9.80;93.00;;;;;;5030321;28;20071;-85
2020/12/17 00:20:10;;;;;;;7.53;3.92;;;9.80;93.40;;;;;;5016890;28;20596;-84
2020/12/17 00:22:36;;;;;;;6.63;4.85;;;9.80;93.00;;;;;;5045106;28;20044;-83
2020/12/17 00:25:03;;;;;;;8.75;4.53;;;9.80;93.00;;;;;;5044678;28;20035;-84
2020/12/17 00:27:28;;;;;;;6.78;5.18;;;9.80;93.00;;;;;;5051777;28;20464;-85
2020/12/17 00:29:54;;;;;;;6.65;4.93;;;9.80;93.00;;;;;;5018042;28;20292;-84
2020/12/17 00:32:19;;;;;;;4.80;3.38;;;9.90;93.00;;;;;;5018849;28;20025;-82
2020/12/17 00:34:45;;;;;;;21.75;4.90;;;9.90;93.00;;;;;;5043188;28;20020;-84
2020/12/17 00:37:10;;;;;;;8.02;4.80;;;9.90;93.00;;;;;;5019463;28;20032;-82
2020/12/17 00:39:36;;;;;;;8.60;5.13;;;9.90;93.00;;;;;;5045417;28;20032;-84
2020/12/17 00:42:04;;;;;;;7.57;4.95;;;9.90;92.90;;;;;;5029832;28;20482;-81
2020/12/17 00:44:30;;;;;;;8.10;4.55;;;9.90;93.00;;;;;;5047371;28;20029;-82
2020/12/17 00:46:56;;;;;;;10.02;4.47;;;9.90;92.90;;;;;;5013694;28;20035;-79
2020/12/17 00:49:21;;;;;;;6.30;4.45;;;9.90;92.90;;;;;;5051279;28;20032;-84
2020/12/17 00:51:47;;;;;;;6.93;4.13;;;10.00;92.40;;;;;;5042133;28;20039;-84
2020/12/17 00:54:12;;;;;;;7.35;4.65;;;9.90;93.00;;;;;;5046317;28;20036;-81
2020/12/17 00:56:45;;;;;;;8.07;4.68;;;9.90;92.90;;;;;;5045307;28;20547;-82
2020/12/17 00:59:10;;;;;;;6.85;4.18;;;9.90;92.80;;;;;;5033591;28;20028;-83
2020/12/17 01:01:36;;;;;;;7.15;4.43;;;9.90;92.80;;;;;;5042558;28;20028;-84
2020/12/17 01:04:02;;;;;;;8.30;5.00;;;10.00;92.30;;;;;;5025801;28;20067;-84
2020/12/17 01:06:28;;;;;;;8.15;4.32;;;9.90;92.80;;;;;;5044739;28;20033;-84
2020/12/17 01:08:53;;;;;;;8.90;4.72;;;9.90;92.80;;;;;;5014738;28;20502;-83
2020/12/17 01:11:28;;;;;;;8.98;4.55;;;9.90;92.80;;;;;;5061192;28;20033;-84
2020/12/17 01:13:54;;;;;;;6.15;3.80;;;9.90;92.80;;;;;;5049467;28;20036;-81
2020/12/17 01:16:20;;;;;;;8.00;3.90;;;9.80;92.80;;;;;;5038531;28;20024;-85
2020/12/17 01:18:45;;;;;;;6.95;3.83;;;9.80;92.80;;;;;;5042258;28;20032;-80
2020/12/17 01:21:11;;;;;;;6.18;4.05;;;9.80;92.80;;;;;;5014375;28;20430;-83
2020/12/17 01:23:36;;;;;;;7.80;4.40;;;9.80;92.90;;;;;;5043864;28;20394;-83
2020/12/17 01:26:08;;;;;;;9.30;4.05;;;9.80;93.00;;;;;;5047449;28;20468;-84
2020/12/17 01:28:34;;;;;;;9.32;4.88;;;9.80;93.00;;;;;;5031633;28;20056;-82
2020/12/17 01:30:59;;;;;;;8.93;3.90;;;9.80;92.90;;;;;;5025993;28;20032;-84
2020/12/17 01:33:25;;;;;;;7.32;4.32;;;9.80;92.90;;;;;;5036239;28;20638;-81
2020/12/17 01:35:50;;;;;;;7.72;3.78;;;9.80;93.00;;;;;;5013645;28;20048;-84
2020/12/17 01:38:16;;;;;;;8.07;4.32;;;9.80;93.00;;;;;;5014718;28;20543;-84
2020/12/17 01:40:45;;;;;;;9.60;4.88;;;9.80;92.90;;;;;;5048409;28;20056;-79
2020/12/17 01:43:11;;;;;;;6.78;3.85;;;9.80;93.30;;;;;;5011714;28;20032;-85
2020/12/17 01:45:36;;;;;;;5.78;4.05;;;9.80;93.00;;;;;;5012844;28;20044;-84
2020/12/17 01:48:02;;;;;;;5.47;4.20;;;9.80;92.90;;;;;;5042363;28;20028;-84
2020/12/17 01:50:28;;;;;;;6.75;3.75;;;9.80;92.90;;;;;;5016466;28;20032;-83
2020/12/17 01:52:53;;;;;;;5.63;3.90;;;9.80;92.90;;;;;;5033612;28;20039;-83
2020/12/17 01:55:19;;;;;;;4.10;3.42;;;9.90;92.90;;;;;;5049437;28;20024;-85
2020/12/17 01:57:45;;;;;;;5.45;3.55;;;9.80;92.80;;;;;;5023607;28;20048;-85
2020/12/17 02:00:10;;;;;;;11.20;4.05;;;9.90;92.90;;;;;;5014686;28;20024;-81
2020/12/17 02:02:36;;;;;;;5.35;3.60;;;9.90;92.90;;;;;;5013490;28;20021;-80
2020/12/17 02:05:02;;;;;;;9.52;4.85;;;9.90;92.90;;;;;;5043897;28;20021;-85
2020/12/17 02:07:28;;;;;;;8.55;4.40;;;9.90;93.00;;;;;;5045889;28;20025;-84
2020/12/17 02:09:54;;;;;;;4.97;3.25;;;9.90;93.10;;;;;;5028935;28;20329;-83
2020/12/17 02:12:19;;;;;;;6.53;4.05;;;9.90;93.10;;;;;;5012791;28;20028;-85
2020/12/17 02:14:45;;;;;;;4.97;4.15;;;9.90;93.20;;;;;;5027085;28;20028;-84
2020/12/17 02:17:10;;;;;;;6.07;3.85;;;9.90;93.10;;;;;;5069091;28;20482;-84
2020/12/17 02:19:36;;;;;;;6.70;3.97;;;10.00;92.70;;;;;;5031958;28;20135;-84
2020/12/17 02:22:01;;;;;;;7.13;4.07;;;9.90;93.20;;;;;;5060782;28;20032;-81
2020/12/17 02:24:27;;;;;;;5.60;3.92;;;9.90;93.30;;;;;;5012975;28;20157;-83
2020/12/17 02:26:52;;;;;;;10.25;4.22;;;9.90;93.30;;;;;;5032082;28;20028;-82
2020/12/17 02:29:18;;;;;;;6.05;4.38;;;9.90;93.50;;;;;;5024880;28;20017;-83
2020/12/17 02:31:44;;;;;;;5.13;3.67;;;9.90;93.40;;;;;;5040043;28;20546;-83
2020/12/17 02:34:10;;;;;;;7.07;4.65;;;9.90;93.40;;;;;;5013082;28;20141;-83
2020/12/17 02:36:35;;;;;;;7.30;4.07;;;9.90;93.60;;;;;;5040283;28;20074;-84
2020/12/17 02:39:01;;;;;;;6.65;4.13;;;9.80;93.60;;;;;;5026332;28;20060;-83
2020/12/17 02:41:26;;;;;;;7.95;4.07;;;9.90;93.60;;;;;;5034389;28;20122;-81
2020/12/17 02:43:52;;;;;;;4.30;3.40;;;9.90;93.60;;;;;;5030218;28;20036;-84
2020/12/17 02:46:18;;;;;;;6.28;3.38;;;9.80;93.60;;;;;;5022473;28;20047;-83
2020/12/17 02:48:43;;;;;;;7.85;3.17;;;9.80;93.60;;;;;;5042164;28;20120;-84
2020/12/17 02:51:11;;;;;;;7.97;3.58;;;9.80;93.70;;;;;;5026467;28;20049;-84
2020/12/17 02:53:36;;;;;;;5.45;3.85;;;9.80;93.60;;;;;;5036187;28;20043;-84
2020/12/17 02:56:02;;;;;;;4.55;3.00;;;9.80;93.60;;;;;;5043572;28;20036;-82
2020/12/17 02:58:27;;;;;;;5.75;3.90;;;9.70;93.60;;;;;;5011078;28;20028;-83
2020/12/17 03:00:53;;;;;;;7.32;4.00;;;9.80;93.60;;;;;;5017330;28;20032;-83
2020/12/17 03:03:18;;;;;;;9.38;4.70;;;9.70;93.60;;;;;;5044058;28;20052;-83
2020/12/17 03:05:44;;;;;;;5.78;3.60;;;9.70;93.60;;;;;;5023567;28;20696;-84
2020/12/17 03:08:09;;;;;;;5.20;4.10;;;9.70;93.60;;;;;;5075698;28;20077;-83
2020/12/17 03:10:35;;;;;;;7.25;3.85;;;9.70;93.70;;;;;;5050385;28;20107;-83
2020/12/17 03:13:00;;;;;;;7.80;3.65;;;9.70;93.70;;;;;;5042797;28;20131;-82
2020/12/17 03:15:26;;;;;;;5.90;3.53;;;9.70;93.60;;;;;;5045632;28;20055;-83
2020/12/17 03:17:52;;;;;;;5.47;2.83;;;9.80;93.50;;;;;;5058300;28;20116;-83
2020/12/17 03:20:17;;;;;;;7.10;3.53;;;9.80;93.50;;;;;;5043376;28;20036;-82
2020/12/17 03:22:43;;;;;;;5.18;3.08;;;9.80;93.50;;;;;;5021988;28;20027;-83
2020/12/17 03:25:09;;;;;;;7.32;3.63;;;9.80;93.30;;;;;;5016857;28;20387;-83
2020/12/17 03:27:35;;;;;;;7.68;3.95;;;9.90;93.50;;;;;;5026799;28;20024;-82
2020/12/17 03:30:01;;;;;;;4.95;3.67;;;9.80;93.40;;;;;;5027167;28;20024;-79
2020/12/17 03:32:26;;;;;;;5.45;3.45;;;9.70;93.40;;;;;;5032496;28;20029;-82
2020/12/17 03:34:52;;;;;;;6.35;3.90;;;9.70;93.40;;;;;;5027479;28;20056;-84
2020/12/17 03:37:17;;;;;;;5.68;3.97;;;9.80;93.50;;;;;;5039365;28;20037;-83
2020/12/17 03:39:43;;;;;;;8.32;4.25;;;9.70;93.40;;;;;;5025399;28;20035;-84
2020/12/17 03:42:08;;;;;;;5.70;3.60;;;9.80;93.40;;;;;;5056418;28;20042;-83
2020/12/17 03:44:34;;;;;;;6.85;3.67;;;9.80;93.40;;;;;;5041231;28;20482;-82
2020/12/17 03:46:59;;;;;;;8.73;3.70;;;9.70;93.40;;;;;;5025831;28;20066;-84
2020/12/17 03:49:25;;;;;;;6.82;4.18;;;9.80;93.30;;;;;;5029604;28;20028;-80
2020/12/17 03:51:50;;;;;;;8.65;4.03;;;9.70;93.50;;;;;;5017323;28;20115;-81
2020/12/17 03:54:16;;;;;;;6.50;4.13;;;9.70;93.30;;;;;;5042132;28;20028;-82
2020/12/17 03:56:42;;;;;;;6.95;4.03;;;9.80;93.30;;;;;;5042787;28;20036;-81
2020/12/17 03:59:07;;;;;;;5.93;3.75;;;9.70;93.30;;;;;;5055869;28;20035;-83
2020/12/17 04:01:33;;;;;;;5.43;3.88;;;9.80;93.30;;;;;;5074406;28;20040;-84
2020/12/17 04:03:58;;;;;;;3.83;2.75;;;9.70;93.30;;;;;;5010435;28;20551;-84
2020/12/17 04:06:24;;;;;;;5.90;3.92;;;9.80;93.30;;;;;;5015018;28;20024;-82
2020/12/17 04:08:49;;;;;;;9.35;3.83;;;9.80;93.30;;;;;;5036588;28;20373;-83
2020/12/17 04:11:15;;;;;;;6.15;3.47;;;9.80;93.20;;;;;;5039405;28;20040;-83
2020/12/17 04:13:40;;;;;;;4.82;3.58;;;9.80;93.20;;;;;;5040626;28;20469;-79
2020/12/17 04:16:06;;;;;;;7.85;4.18;;;9.70;93.30;;;;;;5020760;28;20389;-83
2020/12/17 04:18:31;;;;;;;6.38;4.30;;;9.70;93.20;;;;;;5027003;28;20043;-82
2020/12/17 04:20:57;;;;;;;3.60;3.13;;;9.70;93.20;;;;;;5012989;28;20028;-83
2020/12/17 04:23:22;;;;;;;5.30;3.83;;;9.70;93.30;;;;;;5027988;28;20036;-84
2020/12/17 04:25:48;;;;;;;6.40;3.90;;;9.70;93.20;;;;;;5022147;28;20044;-83
2020/12/17 04:28:13;;;;;;;5.35;3.92;;;9.80;93.20;;;;;;5037715;28;20046;-82
2020/12/17 04:30:39;;;;;;;4.22;3.45;;;9.70;93.20;;;;;;5056307;28;20069;-84
2020/12/17 04:33:04;;;;;;;6.82;3.67;;;9.80;93.20;;;;;;5055369;28;20115;-82
2020/12/17 04:35:30;;;;;;;5.72;3.25;;;9.80;93.20;;;;;;5041526;28;20028;-83
2020/12/17 04:37:55;;;;;;;6.03;4.10;;;9.70;93.20;;;;;;5049708;28;20032;-81
2020/12/17 04:40:21;;;;;;;7.70;4.10;;;9.70;93.20;;;;;;5017883;28;20055;-84
2020/12/17 04:42:50;;;;;;;6.45;4.53;;;9.70;93.20;;;;;;5013031;28;20032;-83
2020/12/17 04:45:16;;;;;;;6.28;4.10;;;9.70;93.30;;;;;;5014589;28;20505;-83
2020/12/17 04:47:43;;;;;;;7.05;4.22;;;9.70;93.30;;;;;;5029611;28;20016;-84
2020/12/17 04:50:11;;;;;;;6.72;4.50;;;9.70;93.20;;;;;;5035247;28;20028;-84
2020/12/17 04:52:37;;;;;;;7.35;3.85;;;9.70;93.20;;;;;;5041953;28;20496;-84
2020/12/17 04:55:04;;;;;;;6.57;4.40;;;9.70;93.50;;;;;;5044822;28;20017;-81
2020/12/17 04:57:29;;;;;;;4.85;3.67;;;9.70;93.20;;;;;;5018945;28;20429;-84
2020/12/17 04:59:55;;;;;;;6.75;4.47;;;9.70;93.10;;;;;;5031616;28;20024;-84
2020/12/17 05:02:21;;;;;;;8.30;4.30;;;9.70;93.30;;;;;;5014986;28;20037;-83
2020/12/17 05:04:47;;;;;;;5.32;3.67;;;9.70;93.50;;;;;;5027604;28;20524;-83
2020/12/17 05:07:15;;;;;;;7.45;4.38;;;9.80;93.10;;;;;;5012827;28;20549;-84
2020/12/17 05:09:41;;;;;;;10.50;4.35;;;9.70;93.10;;;;;;5025379;28;20024;-85
2020/12/17 05:12:07;;;;;;;8.35;4.28;;;9.80;93.00;;;;;;5031425;28;20361;-83
2020/12/17 05:14:32;;;;;;;5.40;3.97;;;9.70;93.00;;;;;;5026298;28;20077;-83
2020/12/17 05:16:58;;;;;;;4.90;4.20;;;9.70;93.10;;;;;;5034882;28;20497;-84
2020/12/17 05:19:24;;;;;;;9.60;4.85;;;9.80;93.00;;;;;;5033708;28;20040;-83
2020/12/17 05:21:50;;;;;;;5.22;3.40;;;9.70;93.00;;;;;;5024042;28;20076;-83
2020/12/17 05:24:15;;;;;;;13.25;5.03;;;9.70;93.20;;;;;;5014626;28;20108;-83
2020/12/17 05:26:41;;;;;;;9.30;4.68;;;9.80;93.20;;;;;;5058542;28;20393;-83
2020/12/17 05:29:06;;;;;;;6.20;5.10;;;9.80;93.10;;;;;;5022610;28;20032;-83
2020/12/17 05:31:33;;;;;;;10.85;4.45;;;9.80;93.10;;;;;;5026551;28;20119;-81
2020/12/17 05:34:05;;;;;;;10.27;4.53;;;9.80;93.10;;;;;;5058711;28;20061;-83
2020/12/17 05:36:31;;;;;;;6.25;4.97;;;9.80;93.10;;;;;;5035165;28;20486;-84
2020/12/17 05:39:07;;;;;;;10.95;4.88;;;9.80;93.20;;;;;;5015741;28;20123;-84
2020/12/17 05:41:34;;;;;;;7.43;4.55;;;9.80;93.20;;;;;;5030165;28;20511;-83
2020/12/17 05:44:13;;;;;;;6.60;4.45;;;9.80;93.30;;;;;;5031869;28;20029;-83
2020/12/17 05:46:40;;;;;;;6.88;4.70;;;9.70;93.30;;;;;;5033284;28;20024;-84
2020/12/17 05:49:13;;;;;;;6.85;4.45;;;9.80;93.30;;;;;;5044059;28;20510;-82
2020/12/17 05:51:38;;;;;;;10.65;5.85;;;9.80;93.20;;;;;;5026195;28;20085;-83
2020/12/17 05:54:09;;;;;;;8.45;4.90;;;9.70;93.20;;;;;;5027947;28;20032;-83
2020/12/17 05:56:38;;;;;;;8.77;4.25;;;9.70;93.20;;;;;;5049000;28;20083;-84
2020/12/17 05:59:04;;;;;;;9.02;5.07;;;9.70;93.30;;;;;;5042195;28;20028;-83
2020/12/17 06:01:30;;;;;;;10.73;5.45;;;9.80;93.30;;;;;;5030684;28;20385;-82
2020/12/17 06:03:55;;;;;;;8.07;4.70;;;9.80;93.30;;;;;;5048284;28;20025;-84
2020/12/17 06:06:21;;;;;;;9.20;5.22;;;9.80;93.30;;;;;;5043912;28;20079;-83
2020/12/17 06:08:50;;;;;;;7.68;3.90;;;9.90;93.40;;;;;;5012705;28;20546;-84
2020/12/17 06:11:17;;;;;;;7.32;5.55;;;9.80;93.40;;;;;;5043164;28;20028;-83
2020/12/17 06:13:43;;;;;;;7.93;5.05;;;9.80;93.40;;;;;;5026900;28;20056;-82
2020/12/17 06:16:12;;;;;;;6.28;4.70;;;9.80;93.50;;;;;;5035145;28;20058;-82
2020/12/17 06:18:59;;;;;;;8.15;4.85;;;9.80;93.60;;;;;;5025740;28;20479;-83
2020/12/17 06:21:25;;;;;;;6.60;3.60;;;9.80;93.60;;;;;;5024594;28;20040;-81
2020/12/17 06:23:57;;;;;;;9.95;5.32;;;9.80;93.70;;;;;;5036359;28;20119;-82
2020/12/17 06:26:23;;;;;;;9.30;4.80;;;9.80;93.70;;;;;;5038314;28;20032;-82
2020/12/17 06:28:49;;;;;;;10.32;3.38;;;9.80;93.80;;;;;;5006343;28;20159;-82
2020/12/17 06:31:26;;;;;;;7.22;5.00;;;9.80;93.80;;;;;;5024167;28;20127;-83
2020/12/17 06:33:55;;;;;;;8.10;4.70;;;9.80;93.90;;;;;;5020028;28;20036;-83
2020/12/17 06:36:41;;;;;;;9.43;4.85;;;9.80;93.90;;;;;;5029054;28;20086;-82
2020/12/17 06:39:06;;;;;;;7.07;5.32;;;9.80;94.00;;;;;;5053093;28;20040;-82
2020/12/17 06:41:32;;;;;;;7.70;3.97;;;9.70;94.00;;;;;;5053324;28;20028;-84
2020/12/17 06:43:58;;;;;;;6.53;4.40;;;9.70;94.10;;;;;;5037721;28;20029;-82
2020/12/17 06:46:34;;;;;;;10.57;6.97;;;9.70;94.20;;;;;;5036956;28;20544;-83
2020/12/17 06:49:01;;;;;;;13.25;5.80;;;9.70;94.30;;;;;;5030026;28;20027;-85
2020/12/17 06:51:41;;;;;;;7.90;3.92;;;9.70;94.40;;;;;;5024743;28;20028;-81
2020/12/17 06:54:28;;;;;;;10.80;5.85;;;9.70;94.50;;;;;;5074224;28;20032;-84
2020/12/17 06:57:13;;;;;;;17.27;7.75;;;9.70;94.50;;;;;;5040191;28;20215;-82
2020/12/17 06:59:42;;;;;;;10.35;5.53;;;9.70;94.60;;;;;;5017130;28;20032;-83
2020/12/17 07:02:08;;;;;;;8.77;3.15;;;9.60;94.60;;;;;;5021783;28;20028;-84
2020/12/17 07:04:40;;;;;;;8.48;5.07;;;9.70;94.60;;;;;;5033382;28;20025;-84
2020/12/17 07:07:32;;;;;;;5.25;2.97;;;9.60;94.70;;;;;;5058557;28;20043;-81
2020/12/17 07:09:57;;;;;;;7.15;4.35;;;9.70;94.80;;;;;;5054816;28;20029;-84
2020/12/17 07:12:35;;;;;;;9.73;5.05;;;9.60;94.80;;;;;;5041368;28;20067;-83
2020/12/17 07:15:05;;;;;;;7.20;4.72;;;9.60;94.80;;;;;;5090480;28;20270;-79
2020/12/17 07:17:30;;;;;;;22.05;5.10;;;9.60;94.90;;;;;;5047819;28;20051;-83
2020/12/17 07:19:56;;;;;;;9.00;5.95;;;9.60;95.00;;;;;;5047904;28;20024;-84
2020/12/17 07:22:22;;;;;;;9.75;6.70;;;9.50;95.00;;;;;;5045853;28;20036;-82
2020/12/17 07:24:51;;;;;;;10.68;6.70;;;9.50;95.10;;;;;;5024952;28;20028;-81
2020/12/17 07:27:24;;;;;;;10.68;5.85;;;9.50;95.10;;;;;;5045764;28;20545;-80
2020/12/17 07:29:51;;;;;;;12.27;6.45;;;9.50;95.10;;;;;;5057759;28;20033;-83
2020/12/17 07:32:29;;;;;;;2.85;2.17;;;9.50;95.20;;;;;;5047132;28;20021;-81
2020/12/17 07:34:56;;;;;;;12.23;7.22;;;9.50;95.20;;;;;;5047644;28;20052;-82
2020/12/17 07:37:44;;;;;;;6.78;4.47;;;9.50;95.20;;;;;;5013968;28;20375;-82
2020/12/17 07:40:21;;;;;;;15.20;6.05;;;9.40;95.20;;;;;;5033304;28;20381;-83
2020/12/17 07:43:06;;;;;;;11.32;6.57;;;9.40;95.30;;;;;;5019451;28;20033;-83
2020/12/17 07:45:51;;;;;;;12.70;7.13;;;9.50;95.40;;;;;;5069944;28;20522;-83
2020/12/17 07:48:39;;;;;;;4.78;3.83;;;9.40;95.40;;;;;;5032525;28;20039;-83
2020/12/17 07:51:06;;;;;;;10.75;6.72;;;9.40;95.40;;;;;;5051917;28;20075;-82
2020/12/17 07:53:32;;;;;;;10.45;5.93;;;9.40;95.50;;;;;;5033181;28;20047;-82
2020/12/17 07:55:57;;;;;;;11.70;4.90;;;9.40;95.40;;;;;;5009552;28;20034;-81
2020/12/17 07:58:23;;;;;;;17.23;6.20;;;9.40;95.50;;;;;;5028291;28;20398;-82
2020/12/17 08:00:48;;;;;;;11.05;7.32;;;9.40;95.60;;;;;;5051680;28;20063;-84
2020/12/17 08:03:18;;;;;;;9.55;6.82;;;9.40;95.50;;;;;;5035824;28;20348;-82
2020/12/17 08:05:43;;;;;;;8.38;5.22;;;9.40;95.60;;;;;;5053571;28;20509;-82
2020/12/17 08:08:21;;;;;;;10.25;5.40;;;9.40;95.70;;;;;;5017186;28;20043;-84
2020/12/17 08:10:46;;;;;;;4.97;3.45;;;9.40;95.70;;;;;;5045163;28;20491;-84
2020/12/17 08:13:14;;;;;;;9.40;6.10;;;9.40;95.70;;;;;;5027679;28;20045;-83
2020/12/17 08:15:39;;;;;;;11.13;6.63;;;9.40;95.70;;;;;;5029591;28;20032;-83
2020/12/17 08:18:05;;;;;;;8.45;5.43;;;9.40;95.70;;;;;;5038615;28;20319;-84
2020/12/17 08:20:31;;;;;;;10.77;5.60;;;9.40;95.70;;;;;;5043164;28;20033;-83
2020/12/17 08:22:56;;;;;;;10.63;5.40;;;9.40;95.70;;;;;;5029898;28;20043;-84
2020/12/17 08:25:23;;;;;;;6.95;5.65;;;9.40;95.80;;;;;;5032894;28;20032;-83
2020/12/17 08:27:51;;;;;;;8.13;4.47;;;9.40;95.80;;;;;;5030668;28;20033;-83
2020/12/17 08:30:17;;;;;;;7.35;4.45;;;9.40;95.80;;;;;;5028481;28;20029;-83
2020/12/17 08:32:53;;;;;;;6.68;3.80;;;9.40;95.70;;;;;;5029063;28;20033;-82
2020/12/17 08:35:26;;;;;;;7.18;4.60;;;9.30;95.80;;;;;;5044163;28;20025;-82
2020/12/17 08:37:54;;;;;;;9.10;4.85;;;9.40;95.80;;;;;;5020740;28;20016;-81
2020/12/17 08:40:24;;;;;;;5.65;4.05;;;9.30;95.70;;;;;;5039957;28;20135;-81
2020/12/17 08:43:00;;;;;;;7.35;4.07;;;9.30;95.70;;;;;;5015984;28;20059;-82
2020/12/17 08:45:26;;;;;;;6.32;3.22;;;9.30;95.70;;;;;;5019991;28;20035;-79
2020/12/17 08:47:55;;;;;;;6.53;3.45;;;9.30;95.80;;;;;;5033601;28;20036;-82
2020/12/17 08:50:22;;;;;;;7.00;4.30;;;9.30;95.70;;;;;;5009622;28;20031;-81
2020/12/17 08:52:49;;;;;;;11.82;4.78;;;9.30;95.80;;;;;;5037698;28;20068;-83
2020/12/17 08:55:14;;;;;;;7.80;4.22;;;9.30;95.70;;;;;;5044437;28;20077;-82
2020/12/17 08:57:40;;;;;;;5.75;3.25;;;9.30;95.70;;;;;;5011706;28;20040;-82
2020/12/17 09:00:19;;;;;;;3.75;2.58;;;9.30;95.80;;;;;;5040164;28;20384;-80
2020/12/17 09:02:44;;;;;;;6.35;3.20;;;9.30;95.70;;;;;;5035150;28;20040;-81
2020/12/17 09:05:12;;;;;;;4.57;2.38;;;9.30;95.70;;;;;;5021993;28;20028;-80
2020/12/17 09:07:40;;;;;;;5.43;3.30;;;9.30;95.70;;;;;;5027948;28;20040;-81
2020/12/17 09:10:10;;;;;;;7.50;2.92;;;9.30;95.70;;;;;;5044706;28;20031;-80
2020/12/17 09:12:35;;;;;;;5.82;3.00;;;9.30;95.70;;;;;;5025992;28;20145;-80
2020/12/17 09:15:05;;;;;;;4.03;3.10;;;9.30;95.60;;;;;;5036186;28;20038;-80
2020/12/17 09:17:31;;;;;;;5.95;3.72;;;9.30;95.70;;;;;;5029876;28;20111;-80
2020/12/17 09:19:56;;;;;;;4.38;2.15;;;9.20;96.00;;;;;;5047009;28;20411;-81
2020/12/17 09:22:30;;;;;;;5.13;3.35;;;9.30;95.70;;;;;;5015437;28;20032;-82
2020/12/17 09:24:55;;;;;;;3.72;2.15;;;9.30;95.60;;;;;;5012776;28;20064;-80
2020/12/17 09:27:28;;;;;;;4.88;3.17;;;9.30;95.60;;;;;;5016424;28;20532;-83
2020/12/17 09:30:13;;;;;;;4.90;3.25;;;9.40;95.60;;;;;;5034537;28;20115;-82
2020/12/17 09:32:52;;;;;;;4.28;1.85;;;9.50;95.70;;;;;;5030948;28;20078;-81
2020/12/17 09:35:18;;;;;;;6.43;2.22;;;9.50;95.50;;;;;;5041912;28;20478;-81
2020/12/17 09:37:56;;;;;;;3.42;2.58;;;9.50;95.60;;;;;;5037238;28;20025;-81
2020/12/17 09:40:22;;;;;;;5.22;2.22;;;9.50;95.50;;;;;;5058264;28;20051;-81
2020/12/17 09:42:48;;;;;;;4.43;2.55;;;9.50;95.50;;;;;;5025263;28;20043;-83
2020/12/17 09:45:17;;;;;;;1.67;1.13;;;9.60;95.50;;;;;;5056020;28;20024;-80
2020/12/17 09:47:44;;;;;;;4.40;3.15;;;9.60;95.40;;;;;;5033071;28;20040;-79
2020/12/17 09:50:18;;;;;;;3.63;2.35;;;9.70;95.30;;;;;;5052407;28;20040;-80
2020/12/17 09:52:44;;;;;;;1.52;1.42;;;9.80;95.30;;;;;;5026700;28;20447;-80
2020/12/17 09:55:12;;;;;;;2.40;2.10;;;9.80;95.30;;;;;;5036836;28;20028;-79
2020/12/17 09:57:41;;;;;;;1.50;1.08;;;10.00;94.60;;;;;;5016838;28;20484;-80
2020/12/17 10:00:09;;;;;;;2.00;1.25;;;10.10;94.40;;;;;;5042303;28;20047;-80
2020/12/17 10:02:37;;;;;;;1.88;1.17;;;10.10;94.10;;;;;;5019830;28;20036;-80
2020/12/17 10:05:03;;;;;;;5.88;2.42;;;10.10;94.10;;;;;;5042010;28;20036;-80
2020/12/17 10:07:29;;;;;;;1.77;0.95;;;10.20;93.80;;;;;;5011548;28;21779;-81
2020/12/17 10:09:54;;;;;;;1.60;1.30;;;10.30;94.00;;;;;;5031845;28;20029;-80
2020/12/17 10:12:20;;;;;;;1.80;1.02;;;10.20;93.90;;;;;;5033768;28;20487;-81
2020/12/17 10:14:45;;;;;;;3.55;2.00;;;10.30;93.70;;;;;;5028833;28;20092;-80
2020/12/17 10:17:11;;;;;;;4.38;0.93;;;10.30;93.70;;;;;;5028561;28;20031;-79
2020/12/17 10:19:36;;;;;;;5.53;1.17;;;10.40;93.80;;;;;;5026144;28;20039;-81
2020/12/17 10:22:02;;;;;;;1.80;1.60;;;10.50;93.50;;;;;;5043153;28;20028;-81
2020/12/17 10:24:27;;;;;;;3.97;1.38;;;10.40;93.70;;;;;;5030722;28;20029;-80
2020/12/17 10:26:53;;;;;;;4.05;1.80;;;10.50;93.40;;;;;;5024458;28;20021;-80
2020/12/17 10:29:19;;;;;;;5.57;1.10;;;10.50;93.40;;;;;;5031043;28;20032;-79
2020/12/17 10:31:47;;;;;;;5.50;1.02;;;10.40;93.10;;;;;;5022036;28;20052;-78
2020/12/17 10:34:16;;;;;;;2.25;1.25;;;10.40;93.20;;;;;;5061612;28;20063;-79
2020/12/17 10:36:41;;;;;;;2.65;1.17;;;10.40;93.00;;;;;;5023739;28;20036;-79
2020/12/17 10:39:07;;;;;;;2.58;1.15;;;10.40;93.10;;;;;;5041784;28;20036;-80
2020/12/17 10:41:33;;;;;;;2.75;1.58;;;10.50;93.10;;;;;;5027464;28;20032;-79
2020/12/17 10:43:58;;;;;;;1.00;0.85;;;10.40;92.90;;;;;;5048051;28;20040;-80
2020/12/17 10:46:24;;;;;;;3.67;1.60;;;10.40;92.80;;;;;;5018529;28;20467;-80
2020/12/17 10:48:49;;;;;;;0.52;0.32;;;10.40;93.30;;;;;;5037953;28;20032;-79
2020/12/17 10:51:16;;;;;;;1.25;1.13;;;10.30;93.00;;;;;;5039187;28;20025;-80
2020/12/17 10:53:42;;;;;;;1.98;1.40;;;10.30;93.00;;;;;;5038548;28;20033;-79
2020/12/17 10:56:08;;;;;;;1.73;0.70;;;10.30;92.90;;;;;;5037158;28;20540;-79
2020/12/17 10:58:34;;;;;;;4.75;1.42;;;10.30;92.90;;;;;;5038282;28;20490;-80
2020/12/17 11:00:59;;;;;;;0.75;0.68;;;10.30;92.80;;;;;;5009994;28;20059;-80
2020/12/17 11:03:25;;;;;;;1.13;0.65;;;10.30;92.90;;;;;;5027826;28;20021;-80
2020/12/17 11:05:51;;;;;;;2.08;1.10;;;10.40;92.60;;;;;;5055442;28;20032;-80
2020/12/17 11:08:16;;;;;;;1.20;0.88;;;10.40;93.00;;;;;;5033335;28;20398;-80
2020/12/17 11:10:43;;;;;;;1.40;0.75;;;10.40;92.50;;;;;;5039302;28;20131;-79
2020/12/17 11:13:08;;;;;;;5.80;1.80;;;10.40;92.60;;;;;;5035284;28;20029;-79
2020/12/17 11:15:34;;;;;;;1.27;1.05;;;10.40;92.60;;;;;;5039900;28;20078;-80
2020/12/17 11:17:59;;;;;;;6.60;1.13;;;10.40;92.50;;;;;;5011226;28;20035;-79
2020/12/17 11:20:25;;;;;;;1.98;1.20;;;10.50;92.70;;;;;;5014942;28;20024;-80
2020/12/17 11:22:50;;;;;;;4.10;0.98;;;10.70;92.30;;;;;;5009199;28;20037;-80
2020/12/17 11:25:16;;;;;;;2.38;0.93;;;10.80;92.40;;;;;;5035209;28;20059;-80
2020/12/17 11:27:41;;;;;;;2.03;1.00;;;10.80;92.40;;;;;;5034371;28;20124;-80
2020/12/17 11:30:07;;;;;;;2.72;1.58;;;10.80;92.60;;;;;;5023475;28;20074;-79
2020/12/17 11:32:33;;;;;;;1.95;0.98;;;10.90;92.50;;;;;;5022785;28;20028;-80
2020/12/17 11:34:58;;;;;;;7.60;1.23;;;11.00;92.40;;;;;;5030406;28;20029;-80
2020/12/17 11:37:24;;;;;;;2.78;1.00;;;11.10;91.80;;;;;;5042192;28;20115;-80
2020/12/17 11:39:49;;;;;;;5.80;1.35;;;11.10;91.80;;;;;;5023776;28;20071;-80
2020/12/17 11:42:15;;;;;;;4.70;1.05;;;11.20;91.90;;;;;;5040098;28;20438;-79
2020/12/17 11:44:40;;;;;;;0.90;0.80;;;11.20;91.90;;;;;;5035883;28;20033;-80
2020/12/17 11:47:06;;;;;;;1.02;0.45;;;11.40;91.60;;;;;;5028093;28;20024;-80
2020/12/17 11:49:32;;;;;;;1.17;0.90;;;11.50;91.70;;;;;;5027855;28;20426;-80
2020/12/17 11:51:57;;;;;;;5.57;0.77;;;11.50;91.00;;;;;;5042632;28;20119;-80
2020/12/17 11:54:23;;;;;;;1.05;0.65;;;11.70;91.10;;;;;;5041729;28;20158;-79
2020/12/17 11:56:51;;;;;;;2.33;1.15;;;11.70;90.40;;;;;;5040013;28;20101;-80
2020/12/17 11:59:17;;;;;;;2.17;1.27;;;11.70;90.50;;;;;;5039915;28;20486;-80
2020/12/17 12:01:43;;;;;;;5.45;1.42;;;11.60;90.30;;;;;;5040337;28;20029;-79
2020/12/17 12:04:11;;;;;;;2.83;1.20;;;11.50;90.50;;;;;;5052524;28;20061;-80
2020/12/17 12:06:37;;;;;;;1.95;1.35;;;11.50;90.50;;;;;;5025597;28;20036;-80
2020/12/17 12:09:03;;;;;;;4.38;1.30;;;11.50;90.20;;;;;;5044428;28;20028;-79
2020/12/17 12:11:28;;;;;;;5.05;1.17;;;11.40;90.20;;;;;;5034830;28;20559;-80
2020/12/17 12:13:54;;;;;;;2.33;0.80;;;11.40;89.40;;;;;;5014445;28;20484;-80
2020/12/17 12:16:19;;;;;;;2.40;0.93;;;11.40;90.40;;;;;;5014667;28;20033;-80
2020/12/17 12:18:45;;;;;;;2.60;1.27;;;11.40;90.20;;;;;;5040481;28;20044;-79
2020/12/17 12:21:11;;;;;;;3.53;0.90;;;11.40;89.90;;;;;;5017193;28;20115;-80
2020/12/17 12:23:37;;;;;;;0.95;0.30;;;11.40;90.00;;;;;;5041286;28;20028;-81
2020/12/17 12:26:03;;;;;;;3.67;1.40;;;11.40;90.30;;;;;;5022364;28;20043;-81
2020/12/17 12:28:28;;;;;;;2.83;1.23;;;11.40;90.30;;;;;;5017328;28;20028;-79
2020/12/17 12:30:54;;;;;;;1.90;0.82;;;11.30;90.30;;;;;;5032061;28;20510;-80
2020/12/17 12:33:19;;;;;;;1.02;0.80;;;11.30;90.10;;;;;;5013530;28;20773;-80
2020/12/17 12:35:45;;;;;;;5.07;1.30;;;11.30;89.00;;;;;;5026157;28;20106;-81
2020/12/17 12:38:10;;;;;;;2.15;0.85;;;11.30;90.00;;;;;;5044423;28;20032;-80
2020/12/17 12:40:36;;;;;;;4.43;0.93;;;11.30;90.20;;;;;;5028314;28;20245;-81
2020/12/17 12:43:02;;;;;;;3.75;1.20;;;11.20;89.80;;;;;;5028309;28;20131;-80
2020/12/17 12:45:27;;;;;;;3.03;1.20;;;11.20;89.70;;;;;;5033786;28;20024;-81
2020/12/17 12:47:53;;;;;;;3.58;1.15;;;11.10;90.10;;;;;;5057190;28;20573;-80
2020/12/17 12:50:18;;;;;;;4.95;1.77;;;11.10;90.20;;;;;;5016134;28;20111;-81
2020/12/17 12:52:44;;;;;;;2.22;0.98;;;11.10;90.10;;;;;;5026592;28;20032;-80